Time;durP1;ratioP1;P1;durP2;ratioP2;P2;SDS_P1;SDS_P2;PMS_P1;PMS_P2;Temp;Humidity;BMP_temperature;BMP_pressure;BME280_temperature;BME280_humidity;BME280_pressure;Samples;Min_cycle;Max_cycle;Signal;HPM_P1;HPM_P2
2021/12/29 00:01:57;;;;;;;;;;;;;;;9.21;76.79;97972.81;5070069;28;20061;-62
2021/12/29 00:04:24;;;;;;;;;;;;;;;9.24;76.74;97970.78;5070461;28;19928;-60
2021/12/29 00:06:50;;;;;;;;;;;;;;;9.28;77.02;97976.63;5070262;28;20390;-62
2021/12/29 00:09:17;;;;;;;;;;;;;;;9.32;76.83;97971.94;5070166;28;20384;-60
2021/12/29 00:11:44;;;;;;;;;;;;;;;9.35;76.81;97971.72;5070374;28;20015;-59
2021/12/29 00:14:10;;;;;;;;;;;;;;;9.38;76.77;97976.69;5070200;28;19977;-61
2021/12/29 00:16:37;;;;;;;;;;;;;;;9.41;76.95;97973.84;5070715;28;19933;-61
2021/12/29 00:19:23;;;;;;;;;;;;;;;9.44;76.76;97981.47;5069991;28;20376;-61
2021/12/29 00:21:49;;;;;;;;;;;;;;;9.47;76.86;97988.25;5070364;28;19951;-59
2021/12/29 00:24:16;;;;;;;;;;;;;;;9.48;76.77;97982.88;5070266;28;19924;-60
2021/12/29 00:26:42;;;;;;;;;;;;;;;9.50;76.68;97986.22;5070195;28;19977;-59
2021/12/29 00:29:09;;;;;;;;;;;;;;;9.52;76.75;97984.31;5069925;28;19928;-61
2021/12/29 00:31:35;;;;;;;;;;;;;;;9.55;76.93;97992.88;5070094;28;19925;-60
2021/12/29 00:34:02;;;;;;;;;;;;;;;9.57;76.69;97989.16;5068811;28;19974;-60
2021/12/29 00:36:28;;;;;;;;;;;;;;;9.59;76.65;97991.69;5068684;28;20372;-60
2021/12/29 00:38:55;;;;;;;;;;;;;;;9.61;76.76;97995.84;5070018;28;20434;-59
2021/12/29 00:41:21;;;;;;;;;;;;;;;9.62;76.75;97999.31;5069549;28;19978;-61
2021/12/29 00:43:48;;;;;;;;;;;;;;;9.63;76.65;98001.81;5070452;28;19928;-60
2021/12/29 00:46:17;;;;;;;;;;;;;;;9.64;76.16;98005.25;5070013;28;19950;-60
2021/12/29 00:48:46;;;;;;;;;;;;;;;9.65;76.64;98007.78;5070336;28;20300;-62
2021/12/29 00:51:12;;;;;;;;;;;;;;;9.67;76.82;98012.91;5068558;28;19928;-61
2021/12/29 00:53:40;;;;;;;;;;;;;;;9.68;76.61;98029.50;5070014;28;19924;-61
2021/12/29 00:56:07;;;;;;;;;;;;;;;9.70;76.64;98025.81;5069702;28;19925;-61
2021/12/29 00:58:33;;;;;;;;;;;;;;;9.72;76.83;98039.63;5070123;28;20699;-61
2021/12/29 01:01:00;;;;;;;;;;;;;;;9.75;76.87;98039.38;5069617;28;19935;-61
2021/12/29 01:03:27;;;;;;;;;;;;;;;9.76;76.81;98041.06;5070022;28;19963;-60
2021/12/29 01:05:54;;;;;;;;;;;;;;;9.78;76.83;98057.53;5069785;28;20718;-60
2021/12/29 01:08:20;;;;;;;;;;;;;;;9.82;76.86;98057.28;5069772;28;19981;-64
2021/12/29 01:10:47;;;;;;;;;;;;;;;9.84;76.92;98068.50;5069815;28;19950;-59
2021/12/29 01:13:18;;;;;;;;;;;;;;;9.85;76.92;98068.38;5069902;28;19925;-61
2021/12/29 01:18:31;;;;;;;;;;;;;;;9.89;76.89;98066.34;5073455;28;19928;-60
2021/12/29 01:20:57;;;;;;;;;;;;;;;9.90;76.94;98097.75;5072851;28;19982;-60
2021/12/29 01:23:24;;;;;;;;;;;;;;;9.92;77.04;98095.00;5073013;28;19928;-60
2021/12/29 01:25:51;;;;;;;;;;;;;;;9.92;76.72;98105.53;5071627;28;19929;-60
2021/12/29 01:28:17;;;;;;;;;;;;;;;9.93;76.79;98114.22;5073306;28;19951;-59
2021/12/29 01:30:44;;;;;;;;;;;;;;;9.95;76.92;98128.09;5073020;28;19928;-60
2021/12/29 01:33:10;;;;;;;;;;;;;;;9.94;76.85;98129.88;5072933;28;20367;-63
2021/12/29 01:35:37;;;;;;;;;;;;;;;9.95;76.79;98133.34;5072795;28;20292;-60
2021/12/29 01:38:05;;;;;;;;;;;;;;;9.95;76.60;98157.84;5073430;28;19999;-60
2021/12/29 01:40:32;;;;;;;;;;;;;;;9.95;76.61;98160.47;5071885;28;19932;-61
2021/12/29 01:42:59;;;;;;;;;;;;;;;9.96;76.70;98166.53;5072920;28;19925;-62
2021/12/29 01:45:26;;;;;;;;;;;;;;;9.96;76.59;98170.03;5072932;28;19925;-59
2021/12/29 01:47:52;;;;;;;;;;;;;;;9.95;76.56;98181.50;5072699;28;20344;-60
2021/12/29 01:50:19;;;;;;;;;;;;;;;9.94;76.54;98173.75;5072514;28;20006;-61
2021/12/29 01:52:54;;;;;;;;;;;;;;;9.94;76.66;98190.31;5072851;28;19994;-61
2021/12/29 01:55:20;;;;;;;;;;;;;;;9.93;76.49;98196.53;5071538;28;19929;-61
2021/12/29 01:57:47;;;;;;;;;;;;;;;9.93;76.48;98193.91;5072427;28;20397;-62
2021/12/29 02:00:16;;;;;;;;;;;;;;;9.93;76.44;98193.91;5072098;28;19928;-60
2021/12/29 02:02:42;;;;;;;;;;;;;;;9.93;76.59;98212.31;5072269;28;19924;-60
2021/12/29 02:05:09;;;;;;;;;;;;;;;9.94;76.45;98213.16;5072412;28;19928;-61
2021/12/29 02:07:35;;;;;;;;;;;;;;;9.93;76.40;98222.81;5072315;28;19978;-61
2021/12/29 02:10:03;;;;;;;;;;;;;;;9.93;76.41;98225.47;5071826;28;19928;-59
2021/12/29 02:12:30;;;;;;;;;;;;;;;9.92;76.57;98229.06;5070994;28;19932;-61
2021/12/29 02:14:56;;;;;;;;;;;;;;;9.93;76.50;98248.25;5072143;28;19978;-60
2021/12/29 02:17:23;;;;;;;;;;;;;;;9.91;76.44;98245.78;5071869;28;19925;-59
2021/12/29 02:19:51;;;;;;;;;;;;;;;9.90;76.37;98259.84;5072064;28;19947;-60
2021/12/29 02:22:36;;;;;;;;;;;;;;;9.89;76.52;98258.19;5072279;28;20015;-62
2021/12/29 02:25:34;;;;;;;;;;;;;;;9.88;76.43;98267.84;5071899;28;19970;-60
2021/12/29 02:27:54;;;;;;;;;;;;;;;9.88;76.73;98270.50;5071677;28;19924;-59
2021/12/29 02:30:22;;;;;;;;;;;;;;;9.89;76.58;98268.72;5071551;28;19933;-60
2021/12/29 02:32:55;;;;;;;;;;;;;;;9.90;76.63;98265.13;5072061;28;19928;-60
2021/12/29 02:35:24;;;;;;;;;;;;;;;9.89;76.15;98273.97;5071821;28;19924;-61
2021/12/29 02:37:50;;;;;;;;;;;;;;;9.90;76.63;98281.72;5071492;28;19928;-59
2021/12/29 02:40:17;;;;;;;;;;;;;;;9.91;76.66;98279.94;5071320;28;19932;-59
2021/12/29 02:42:44;;;;;;;;;;;;;;;9.91;76.71;98291.28;5070396;28;19932;-60
2021/12/29 02:45:13;;;;;;;;;;;;;;;9.92;76.68;98289.50;5071780;28;19928;-61
2021/12/29 02:47:40;;;;;;;;;;;;;;;9.94;76.71;98292.00;5071707;28;20041;-60
2021/12/29 02:50:08;;;;;;;;;;;;;;;9.94;76.62;98292.00;5071579;28;19928;-59
2021/12/29 02:52:34;;;;;;;;;;;;;;;9.96;76.72;98292.72;5071065;28;20335;-63
2021/12/29 02:55:01;;;;;;;;;;;;;;;9.97;76.68;98305.75;5071342;28;20009;-60
2021/12/29 02:57:27;;;;;;;;;;;;;;;9.99;76.74;98300.38;5071294;28;19928;-60
2021/12/29 02:59:53;;;;;;;;;;;;;;;10.00;76.67;98305.50;5071457;28;19925;-60
2021/12/29 03:02:20;;;;;;;;;;;;;;;10.00;76.68;98308.16;5071455;28;19932;-60
2021/12/29 03:04:47;;;;;;;;;;;;;;;10.03;76.67;98312.31;5069949;28;19931;-62
2021/12/29 03:07:14;;;;;;;;;;;;;;;10.03;76.71;98315.78;5071072;28;20376;-60
2021/12/29 03:09:40;;;;;;;;;;;;;;;10.04;76.74;98330.59;5069644;28;19928;-60
2021/12/29 03:12:07;;;;;;;;;;;;;;;10.06;76.62;98324.38;5070942;28;20335;-60
2021/12/29 03:14:34;;;;;;;;;;;;;;;10.06;76.61;98330.50;5071308;28;20333;-60
2021/12/29 03:17:00;;;;;;;;;;;;;;;10.07;76.63;98331.31;5069882;28;19924;-61
2021/12/29 03:19:27;;;;;;;;;;;;;;;10.09;76.55;98332.88;5070563;28;20381;-62
2021/12/29 03:21:53;;;;;;;;;;;;;;;10.09;76.70;98332.03;5070849;28;19928;-61
2021/12/29 03:24:21;;;;;;;;;;;;;;;10.11;76.78;98332.75;5070902;28;19925;-60
2021/12/29 03:26:47;;;;;;;;;;;;;;;10.11;76.71;98332.75;5071090;28;19929;-60
2021/12/29 03:29:14;;;;;;;;;;;;;;;10.12;76.84;98343.16;5070588;28;20050;-59
2021/12/29 03:31:42;;;;;;;;;;;;;;;10.15;76.87;98347.34;5070738;28;19943;-63
2021/12/29 03:34:09;;;;;;;;;;;;;;;10.15;76.66;98344.69;5070753;28;19935;-61
2021/12/29 03:36:36;;;;;;;;;;;;;;;10.17;76.63;98345.44;5069071;28;19978;-59
2021/12/29 03:39:03;;;;;;;;;;;;;;;10.17;76.78;98350.69;5069097;28;19974;-60
2021/12/29 03:41:29;;;;;;;;;;;;;;;10.19;76.87;98358.44;5070476;28;20277;-63
2021/12/29 03:43:56;;;;;;;;;;;;;;;10.19;76.73;98347.91;5070766;28;19955;-60
2021/12/29 03:46:24;;;;;;;;;;;;;;;10.21;76.85;98361.78;5070762;28;19970;-60
2021/12/29 03:48:50;;;;;;;;;;;;;;;10.22;76.91;98363.47;5070475;28;20308;-61
2021/12/29 03:51:17;;;;;;;;;;;;;;;10.24;76.71;98358.94;5070557;28;20402;-60
2021/12/29 03:53:43;;;;;;;;;;;;;;;10.25;76.76;98364.06;5070968;28;20272;-60
2021/12/29 03:56:11;;;;;;;;;;;;;;;10.26;76.80;98373.63;5070567;28;20031;-60
2021/12/29 03:58:37;;;;;;;;;;;;;;;10.28;76.77;98371.72;5070494;28;19970;-61
2021/12/29 04:01:07;;;;;;;;;;;;;;;10.28;76.79;98374.34;5070059;28;19932;-60
2021/12/29 04:03:34;;;;;;;;;;;;;;;10.30;76.72;98382.97;5070429;28;20013;-60
2021/12/29 04:06:00;;;;;;;;;;;;;;;10.32;76.86;98385.44;5070674;28;20384;-61
2021/12/29 04:08:27;;;;;;;;;;;;;;;10.34;76.74;98387.97;5070448;28;19968;-60
2021/12/29 04:10:53;;;;;;;;;;;;;;;10.35;76.76;98390.47;5070213;28;19928;-61
2021/12/29 04:13:20;;;;;;;;;;;;;;;10.36;76.68;98392.13;5070512;28;19928;-61
2021/12/29 04:15:47;;;;;;;;;;;;;;;10.38;76.53;98399.91;5070297;28;19966;-60
2021/12/29 04:18:26;;;;;;;;;;;;;;;10.38;76.45;98397.28;5070607;28;19924;-60
2021/12/29 04:21:01;;;;;;;;;;;;;;;10.39;76.46;98401.63;5070205;28;20368;-60
2021/12/29 04:23:29;;;;;;;;;;;;;;;10.39;76.69;98404.25;5070383;28;20018;-60
2021/12/29 04:25:57;;;;;;;;;;;;;;;10.40;76.82;98419.06;5068757;28;19932;-60
2021/12/29 04:28:25;;;;;;;;;;;;;;;10.41;76.68;98410.22;5069712;28;19928;-60
2021/12/29 04:31:05;;;;;;;;;;;;;;;10.42;76.89;98423.25;5070113;28;20339;-60
2021/12/29 04:33:32;;;;;;;;;;;;;;;10.44;76.64;98425.78;5068956;28;19936;-60
2021/12/29 04:35:59;;;;;;;;;;;;;;;10.45;76.88;98418.72;5070062;28;19970;-60
2021/12/29 04:38:25;;;;;;;;;;;;;;;10.46;76.94;98423.88;5070102;28;20338;-60
2021/12/29 04:40:53;;;;;;;;;;;;;;;10.48;76.94;98436.91;5069786;28;19950;-60
2021/12/29 04:43:20;;;;;;;;;;;;;;;10.50;76.99;98448.97;5068968;28;19924;-61
2021/12/29 04:45:47;;;;;;;;;;;;;;;10.52;77.00;98448.84;5070096;28;20277;-61
2021/12/29 04:48:15;;;;;;;;;;;;;;;10.52;76.94;98452.34;5070230;28;19932;-60
2021/12/29 04:50:49;;;;;;;;;;;;;;;10.54;77.00;98468.84;5072562;28;20367;-60
2021/12/29 04:53:17;;;;;;;;;;;;;;;10.56;76.92;98471.34;5073772;28;19924;-61
2021/12/29 04:55:45;;;;;;;;;;;;;;;10.57;76.81;98472.19;5073730;28;19936;-60
2021/12/29 04:58:12;;;;;;;;;;;;;;;10.59;76.82;98478.16;5073939;28;19936;-60
2021/12/29 05:00:39;;;;;;;;;;;;;;;10.59;76.91;98472.91;5072343;28;19939;-60
2021/12/29 05:03:06;;;;;;;;;;;;;;;10.59;76.89;98478.16;5073880;28;20005;-60
2021/12/29 05:10:46;;;;;;;;;;;;;;;10.60;76.65;98483.31;5073852;28;19924;-59
2021/12/29 05:13:13;;;;;;;;;;;;;;;10.61;76.65;98489.41;5073613;28;20395;-60
2021/12/29 05:15:40;;;;;;;;;;;;;;;10.62;76.61;98501.63;5073604;28;19928;-59
2021/12/29 05:18:07;;;;;;;;;;;;;;;10.62;76.74;98496.34;5073688;28;19924;-60
2021/12/29 05:20:33;;;;;;;;;;;;;;;10.61;76.80;98498.13;5073141;28;19928;-60
2021/12/29 05:23:00;;;;;;;;;;;;;;;10.62;76.66;98504.25;5073536;28;19928;-60
2021/12/29 05:25:27;;;;;;;;;;;;;;;10.62;76.65;98509.50;5073299;28;19925;-59
2021/12/29 05:27:53;;;;;;;;;;;;;;;10.61;76.60;98515.72;5073423;28;19971;-60
2021/12/29 05:30:20;;;;;;;;;;;;;;;10.61;76.83;98516.56;5073081;28;19982;-60
2021/12/29 05:32:47;;;;;;;;;;;;;;;10.61;76.72;98521.00;5073162;28;19978;-61
2021/12/29 05:35:14;;;;;;;;;;;;;;;10.61;76.70;98531.53;5073407;28;19924;-60
2021/12/29 05:37:40;;;;;;;;;;;;;;;10.62;76.80;98522.66;5073394;28;19931;-60
2021/12/29 05:40:08;;;;;;;;;;;;;;;10.62;76.86;98525.28;5072725;28;20480;-59
2021/12/29 05:42:34;;;;;;;;;;;;;;;10.63;76.77;98529.59;5071770;28;19929;-60
2021/12/29 05:45:05;;;;;;;;;;;;;;;10.63;76.70;98532.22;5073339;28;19950;-60
2021/12/29 05:47:32;;;;;;;;;;;;;;;10.62;76.78;98528.75;5072883;28;19928;-62
2021/12/29 05:49:58;;;;;;;;;;;;;;;10.63;76.75;98534.84;5072601;28;19928;-61
2021/12/29 05:52:25;;;;;;;;;;;;;;;10.64;76.62;98547.06;5072811;28;19970;-59
2021/12/29 05:54:51;;;;;;;;;;;;;;;10.64;76.77;98557.59;5072821;28;20331;-61
2021/12/29 05:57:18;;;;;;;;;;;;;;;10.62;76.54;98565.59;5072367;28;20478;-59
2021/12/29 05:59:44;;;;;;;;;;;;;;;10.61;76.67;98579.72;5071806;28;20446;-61
2021/12/29 06:02:11;;;;;;;;;;;;;;;10.60;76.57;98585.94;5072640;28;19928;-61
2021/12/29 06:04:37;;;;;;;;;;;;;;;10.59;76.51;98580.78;5072531;28;19925;-60
2021/12/29 06:07:04;;;;;;;;;;;;;;;10.58;76.54;98589.63;5071077;28;19924;-59
2021/12/29 06:09:30;;;;;;;;;;;;;;;10.57;76.53;98593.22;5072370;28;19939;-60
2021/12/29 06:11:57;;;;;;;;;;;;;;;10.56;76.51;98600.28;5072401;28;19974;-60
2021/12/29 06:14:23;;;;;;;;;;;;;;;10.56;76.54;98597.66;5072619;28;19928;-61
2021/12/29 06:16:50;;;;;;;;;;;;;;;10.55;76.58;98604.69;5072154;28;20417;-59
2021/12/29 06:19:16;;;;;;;;;;;;;;;10.55;76.63;98604.69;5072338;28;19928;-60
2021/12/29 06:21:43;;;;;;;;;;;;;;;10.55;76.70;98607.31;5072346;28;19928;-59
2021/12/29 06:24:10;;;;;;;;;;;;;;;10.54;76.60;98610.06;5072200;28;19924;-59
2021/12/29 06:26:37;;;;;;;;;;;;;;;10.54;76.61;98616.19;5072158;28;19943;-61
2021/12/29 06:29:04;;;;;;;;;;;;;;;10.55;76.61;98614.41;5071904;28;19928;-61
2021/12/29 06:31:32;;;;;;;;;;;;;;;10.55;76.74;98620.47;5070659;28;19928;-62
2021/12/29 06:34:00;;;;;;;;;;;;;;;10.55;76.76;98619.66;5071885;28;20354;-61
2021/12/29 06:36:27;;;;;;;;;;;;;;;10.56;76.78;98631.84;5072125;28;19982;-60
2021/12/29 06:38:53;;;;;;;;;;;;;;;10.56;76.73;98634.47;5071774;28;19954;-62
2021/12/29 06:41:20;;;;;;;;;;;;;;;10.57;76.75;98630.06;5071442;28;19928;-61
2021/12/29 06:43:46;;;;;;;;;;;;;;;10.57;76.64;98627.44;5070154;28;19932;-62
2021/12/29 06:46:12;;;;;;;;;;;;;;;10.55;76.69;98628.38;5071471;28;20282;-60
2021/12/29 06:48:39;;;;;;;;;;;;;;;10.57;76.62;98630.06;5071837;28;19925;-60
2021/12/29 06:51:05;;;;;;;;;;;;;;;10.57;76.73;98632.69;5071352;28;19982;-62
2021/12/29 06:53:32;;;;;;;;;;;;;;;10.55;76.67;98628.38;5071432;28;19980;-60
2021/12/29 06:55:59;;;;;;;;;;;;;;;10.55;76.53;98640.72;5071269;28;19924;-60
2021/12/29 06:58:25;;;;;;;;;;;;;;;10.54;76.39;98639.84;5071815;28;19928;-59
2021/12/29 07:00:52;;;;;;;;;;;;;;;10.55;76.74;98643.34;5070957;28;20373;-60
2021/12/29 07:03:19;;;;;;;;;;;;;;;10.54;76.51;98645.13;5071409;28;19928;-59
2021/12/29 07:05:46;;;;;;;;;;;;;;;10.54;76.71;98658.28;5071654;28;19928;-61
2021/12/29 07:08:14;;;;;;;;;;;;;;;10.52;76.62;98652.31;5071118;28;19929;-60
2021/12/29 07:10:42;;;;;;;;;;;;;;;10.52;76.55;98652.31;5070901;28;20395;-60
2021/12/29 07:13:08;;;;;;;;;;;;;;;10.52;76.49;98654.94;5070064;28;20453;-59
2021/12/29 07:15:35;;;;;;;;;;;;;;;10.52;76.69;98657.56;5071435;28;19965;-60
2021/12/29 07:18:02;;;;;;;;;;;;;;;10.52;76.64;98664.59;5071216;28;19925;-60
2021/12/29 07:20:28;;;;;;;;;;;;;;;10.52;76.47;98680.41;5070671;28;19972;-59
2021/12/29 07:22:55;;;;;;;;;;;;;;;10.53;76.48;98682.06;5069617;28;19928;-59
2021/12/29 07:25:22;;;;;;;;;;;;;;;10.52;76.59;98678.63;5070565;28;20441;-61
2021/12/29 07:27:48;;;;;;;;;;;;;;;10.51;76.39;98684.00;5070563;28;19925;-62
2021/12/29 07:30:15;;;;;;;;;;;;;;;10.52;76.39;98702.28;5070289;28;20461;-60
2021/12/29 07:32:41;;;;;;;;;;;;;;;10.52;76.69;98699.66;5071115;28;19924;-59
2021/12/29 07:35:08;;;;;;;;;;;;;;;10.51;76.69;98700.59;5070811;28;20346;-59
2021/12/29 07:37:35;;;;;;;;;;;;;;;10.52;76.69;98707.56;5070787;28;19929;-62
2021/12/29 07:40:06;;;;;;;;;;;;;;;10.51;76.70;98705.84;5070410;28;19959;-59
2021/12/29 07:42:37;;;;;;;;;;;;;;;10.52;76.84;98712.81;5069760;28;19925;-61
2021/12/29 07:45:06;;;;;;;;;;;;;;;10.53;76.65;98721.53;5070866;28;20368;-59
2021/12/29 07:47:39;;;;;;;;;;;;;;;10.53;76.73;98717.13;5069290;28;20393;-60
2021/12/29 07:50:06;;;;;;;;;;;;;;;10.54;76.83;98726.69;5069245;28;20396;-59
2021/12/29 07:52:53;;;;;;;;;;;;;;;10.54;76.75;98731.94;5070766;28;19982;-59
2021/12/29 07:55:19;;;;;;;;;;;;;;;10.54;76.75;98734.59;5070638;28;20019;-61
2021/12/29 07:57:47;;;;;;;;;;;;;;;10.55;76.65;98733.63;5070665;28;20084;-61
2021/12/29 08:00:15;;;;;;;;;;;;;;;10.57;76.69;98735.31;5070323;28;20320;-59
2021/12/29 08:02:44;;;;;;;;;;;;;;;10.55;76.47;98728.38;5070474;28;19928;-60
2021/12/29 08:05:11;;;;;;;;;;;;;;;10.57;76.48;98741.41;5070616;28;19928;-59
2021/12/29 08:07:44;;;;;;;;;;;;;;;10.57;76.44;98756.38;5069616;28;19939;-60
2021/12/29 08:10:10;;;;;;;;;;;;;;;10.58;76.68;98758.06;5070233;28;19955;-60
2021/12/29 08:12:37;;;;;;;;;;;;;;;10.57;76.69;98761.63;5070456;28;20010;-60
2021/12/29 08:15:03;;;;;;;;;;;;;;;10.58;76.68;98764.13;5069918;28;19925;-59
2021/12/29 08:17:32;;;;;;;;;;;;;;;10.59;76.71;98771.09;5070299;28;19932;-60
2021/12/29 08:20:03;;;;;;;;;;;;;;;10.60;76.79;98769.28;5069097;28;19978;-60
2021/12/29 08:22:29;;;;;;;;;;;;;;;10.60;76.71;98762.25;5070129;28;20451;-61
2021/12/29 08:24:56;;;;;;;;;;;;;;;10.61;76.63;98757.84;5073827;28;20384;-60
2021/12/29 08:27:23;;;;;;;;;;;;;;;10.61;76.71;98763.91;5074641;28;19925;-60
2021/12/29 08:29:49;;;;;;;;;;;;;;;10.62;76.65;98770.03;5074203;28;19942;-60
2021/12/29 08:32:16;;;;;;;;;;;;;;;10.61;76.57;98769.19;5074138;28;19928;-60
2021/12/29 08:34:43;;;;;;;;;;;;;;;10.62;76.71;98776.13;5074377;28;19925;-60
2021/12/29 08:37:15;;;;;;;;;;;;;;;10.63;76.59;98783.09;5073168;28;20373;-60
2021/12/29 08:39:41;;;;;;;;;;;;;;;10.63;76.49;98790.97;5074068;28;19970;-59
2021/12/29 08:42:07;;;;;;;;;;;;;;;10.63;76.51;98788.34;5074154;28;19928;-59
2021/12/29 08:44:34;;;;;;;;;;;;;;;10.64;76.71;98792.66;5073928;28;19989;-61
2021/12/29 08:47:00;;;;;;;;;;;;;;;10.64;76.52;98790.03;5074107;28;20384;-60
2021/12/29 08:49:27;;;;;;;;;;;;;;;10.64;76.56;98795.28;5073696;28;19930;-59
2021/12/29 08:51:53;;;;;;;;;;;;;;;10.65;76.59;98806.66;5073733;28;19931;-59
2021/12/29 08:54:21;;;;;;;;;;;;;;;10.66;76.51;98800.44;5073500;28;20410;-60
2021/12/29 08:56:48;;;;;;;;;;;;;;;10.66;76.67;98789.91;5073726;28;19924;-60
2021/12/29 08:59:14;;;;;;;;;;;;;;;10.66;76.55;98792.53;5073236;28;20005;-63
2021/12/29 09:01:40;;;;;;;;;;;;;;;10.66;76.66;98796.00;5073443;28;19958;-60
2021/12/29 09:04:07;;;;;;;;;;;;;;;10.66;76.57;98787.28;5073509;28;20463;-59
2021/12/29 09:06:34;;;;;;;;;;;;;;;10.66;76.72;98785.47;5073683;28;19970;-59
2021/12/29 09:09:01;;;;;;;;;;;;;;;10.66;76.77;98777.56;5073314;28;19929;-63
2021/12/29 09:11:30;;;;;;;;;;;;;;;10.67;76.50;98778.44;5073269;28;19924;-60
2021/12/29 09:13:57;;;;;;;;;;;;;;;10.69;76.76;98771.25;5072276;28;19970;-59
2021/12/29 09:16:23;;;;;;;;;;;;;;;10.70;76.79;98772.94;5073265;28;20285;-59
2021/12/29 09:18:50;;;;;;;;;;;;;;;10.69;76.86;98779.13;5073644;28;20282;-61
2021/12/29 09:21:18;;;;;;;;;;;;;;;10.71;76.66;98785.16;5072884;28;19929;-62
2021/12/29 09:23:45;;;;;;;;;;;;;;;10.71;76.61;98787.78;5073298;28;20342;-61
2021/12/29 09:26:12;;;;;;;;;;;;;;;10.72;76.55;98792.09;5071697;28;19928;-60
2021/12/29 09:28:39;;;;;;;;;;;;;;;10.73;76.72;98785.03;5073603;28;19932;-60
2021/12/29 09:31:06;;;;;;;;;;;;;;;10.74;76.63;98790.19;5072874;28;19928;-61
2021/12/29 09:33:33;;;;;;;;;;;;;;;10.75;76.63;98791.00;5073122;28;20348;-59
2021/12/29 09:36:02;;;;;;;;;;;;;;;10.77;76.93;98799.66;5072298;28;19970;-60
2021/12/29 09:38:32;;;;;;;;;;;;;;;10.77;76.85;98808.38;5071846;28;19987;-60
2021/12/29 09:40:59;;;;;;;;;;;;;;;10.79;76.64;98817.00;5072406;28;19932;-60
2021/12/29 09:43:25;;;;;;;;;;;;;;;10.79;76.67;98821.44;5072689;28;20438;-62
2021/12/29 09:45:51;;;;;;;;;;;;;;;10.80;76.76;98823.94;5071342;28;19951;-60
2021/12/29 09:48:18;;;;;;;;;;;;;;;10.82;76.65;98827.31;5072722;28;19959;-60
2021/12/29 09:50:45;;;;;;;;;;;;;;;10.83;76.61;98843.94;5072410;28;19931;-60
2021/12/29 09:53:12;;;;;;;;;;;;;;;10.84;76.74;98837.72;5072799;28;19928;-60
2021/12/29 09:55:40;;;;;;;;;;;;;;;10.87;76.70;98839.31;5072454;28;19924;-59
2021/12/29 09:58:07;;;;;;;;;;;;;;;10.87;76.83;98840.13;5072488;28;19925;-60
2021/12/29 10:00:37;;;;;;;;;;;;;;;10.89;76.63;98847.94;5072291;28;20319;-60
2021/12/29 10:03:05;;;;;;;;;;;;;;;10.90;76.59;98858.34;5072755;28;19996;-59
2021/12/29 10:05:32;;;;;;;;;;;;;;;10.92;76.73;98847.72;5072537;28;19991;-62
2021/12/29 10:07:59;;;;;;;;;;;;;;;10.94;76.82;98853.69;5071163;28;20339;-59
2021/12/29 10:10:25;;;;;;;;;;;;;;;10.97;76.94;98842.09;5072239;28;19978;-60
2021/12/29 10:12:52;;;;;;;;;;;;;;;10.98;76.75;98849.88;5072340;28;19974;-62
2021/12/29 10:15:19;;;;;;;;;;;;;;;11.00;76.96;98842.72;5072224;28;20518;-60
2021/12/29 10:17:46;;;;;;;;;;;;;;;11.02;76.83;98846.06;5070893;28;20377;-61
2021/12/29 10:20:17;;;;;;;;;;;;;;;11.05;76.90;98840.59;5071745;28;20393;-60
2021/12/29 10:22:53;;;;;;;;;;;;;;;11.07;76.81;98843.13;5072317;28;19948;-61
2021/12/29 10:25:24;;;;;;;;;;;;;;;11.09;76.81;98843.81;5072179;28;19935;-63
2021/12/29 10:27:51;;;;;;;;;;;;;;;11.12;76.74;98845.38;5072117;28;19936;-61
2021/12/29 10:30:23;;;;;;;;;;;;;;;11.14;76.87;98843.50;5070505;28;19942;-59
2021/12/29 10:32:50;;;;;;;;;;;;;;;11.16;76.76;98837.16;5071731;28;19955;-62
2021/12/29 10:35:24;;;;;;;;;;;;;;;11.17;76.80;98840.63;5071875;28;19936;-60
2021/12/29 10:37:53;;;;;;;;;;;;;;;11.19;76.84;98842.19;5072128;28;19929;-60
2021/12/29 10:40:24;;;;;;;;;;;;;;;11.24;76.88;98838.34;5070385;28;19928;-61
2021/12/29 10:42:55;;;;;;;;;;;;;;;11.26;76.75;98837.31;5070397;28;19943;-61
2021/12/29 10:45:33;;;;;;;;;;;;;;;11.29;76.88;98844.16;5070054;28;19924;-60
2021/12/29 10:48:00;;;;;;;;;;;;;;;11.31;76.94;98843.06;5071860;28;19924;-60
2021/12/29 10:50:27;;;;;;;;;;;;;;;11.33;76.64;98849.06;5070313;28;20376;-61
2021/12/29 10:52:55;;;;;;;;;;;;;;;11.36;76.59;98847.16;5071980;28;19928;-61
2021/12/29 10:55:22;;;;;;;;;;;;;;;11.37;76.38;98839.16;5071595;28;19924;-68
2021/12/29 10:58:08;;;;;;;;;;;;;;;11.39;76.47;98849.53;5070501;28;19928;-62
2021/12/29 11:00:56;;;;;;;;;;;;;;;11.40;76.35;98851.25;5070352;28;19940;-62
2021/12/29 11:03:25;;;;;;;;;;;;;;;11.40;76.13;98853.88;5070432;28;19928;-62
2021/12/29 11:05:58;;;;;;;;;;;;;;;11.39;76.40;98865.34;5071488;28;19951;-62
2021/12/29 11:08:26;;;;;;;;;;;;;;;11.40;76.02;98853.88;5070100;28;19928;-61
2021/12/29 11:10:55;;;;;;;;;;;;;;;11.40;76.41;98857.34;5071714;28;19946;-60
2021/12/29 11:13:29;;;;;;;;;;;;;;;11.41;76.38;98863.47;5069969;28;19925;-60
2021/12/29 11:15:57;;;;;;;;;;;;;;;11.40;76.28;98856.50;5070080;28;19928;-64
2021/12/29 11:18:23;;;;;;;;;;;;;;;11.40;76.34;98856.50;5070816;28;19936;-61
2021/12/29 11:20:54;;;;;;;;;;;;;;;11.40;76.30;98854.69;5070702;28;19928;-61
2021/12/29 11:23:21;;;;;;;;;;;;;;;11.41;76.34;98845.00;5070167;28;19925;-60
2021/12/29 11:25:48;;;;;;;;;;;;;;;11.40;76.53;98844.16;5070047;28;19982;-61
2021/12/29 11:28:22;;;;;;;;;;;;;;;11.41;76.23;98850.28;5071009;28;19925;-60
2021/12/29 11:30:50;;;;;;;;;;;;;;;11.43;76.43;98851.00;5069833;28;19924;-60
2021/12/29 11:33:17;;;;;;;;;;;;;;;11.43;76.34;98843.09;5070741;28;20444;-60
2021/12/29 11:35:45;;;;;;;;;;;;;;;11.45;75.99;98841.19;5070859;28;19924;-61
2021/12/29 11:38:11;;;;;;;;;;;;;;;11.46;76.36;98842.88;5071063;28;20002;-60
2021/12/29 11:40:40;;;;;;;;;;;;;;;11.47;76.27;98834.00;5070404;28;19978;-61
2021/12/29 11:43:09;;;;;;;;;;;;;;;11.47;76.46;98840.13;5070655;28;19928;-60
2021/12/29 11:45:37;;;;;;;;;;;;;;;11.49;76.38;98841.78;5070601;28;19928;-60
2021/12/29 11:48:04;;;;;;;;;;;;;;;11.50;76.59;98844.31;5070543;28;19966;-60
2021/12/29 11:50:33;;;;;;;;;;;;;;;11.52;76.55;98846.84;5070503;28;19928;-61
2021/12/29 11:53:05;;;;;;;;;;;;;;;11.54;76.52;98851.03;5070571;28;19925;-61
2021/12/29 11:55:35;;;;;;;;;;;;;;;11.56;76.59;98845.66;5070723;28;19924;-60
2021/12/29 11:58:09;;;;;;;;;;;;;;;11.59;76.77;98850.69;5070037;28;20372;-60
2021/12/29 12:00:36;;;;;;;;;;;;;;;11.62;76.59;98860.16;5069001;28;20723;-60
2021/12/29 12:03:21;;;;;;;;;;;;;;;11.64;76.88;98858.25;5070282;28;20355;-60
2021/12/29 12:05:48;;;;;;;;;;;;;;;11.68;76.75;98870.22;5070151;28;20361;-60
2021/12/29 12:08:16;;;;;;;;;;;;;;;11.69;76.48;98874.53;5070669;28;19924;-61
2021/12/29 12:10:43;;;;;;;;;;;;;;;11.70;76.47;98870.97;5068841;28;19974;-62
2021/12/29 12:13:21;;;;;;;;;;;;;;;11.70;76.39;98876.25;5070305;28;20339;-60
2021/12/29 12:15:48;;;;;;;;;;;;;;;11.70;76.38;98877.06;5070454;28;19932;-60
2021/12/29 12:18:15;;;;;;;;;;;;;;;11.71;76.38;98872.66;5070479;28;19943;-61
2021/12/29 12:20:49;;;;;;;;;;;;;;;11.72;76.27;98887.50;5070356;28;20346;-60
2021/12/29 12:23:29;;;;;;;;;;;;;;;11.70;75.66;98876.25;5070115;28;19967;-60
2021/12/29 12:26:09;;;;;;;;;;;;;;;11.69;75.96;98877.19;5069099;28;20397;-61
2021/12/29 12:28:47;;;;;;;;;;;;;;;11.66;75.56;98877.44;5070425;28;19974;-60
2021/12/29 12:31:24;;;;;;;;;;;;;;;11.65;75.71;98873.09;5070047;28;19974;-60
2021/12/29 12:33:51;;;;;;;;;;;;;;;11.63;75.92;98869.75;5070106;28;19924;-60
2021/12/29 12:36:18;;;;;;;;;;;;;;;11.60;75.59;98876.91;5069228;28;19940;-59
2021/12/29 12:38:44;;;;;;;;;;;;;;;11.59;75.79;98880.50;5070195;28;19947;-60
2021/12/29 12:41:18;;;;;;;;;;;;;;;11.58;75.55;98888.53;5069864;28;19931;-59
2021/12/29 12:43:51;;;;;;;;;;;;;;;11.57;75.75;98887.72;5068689;28;19925;-60
2021/12/29 12:46:30;;;;;;;;;;;;;;;11.57;75.89;98897.41;5069926;28;19932;-62
2021/12/29 12:48:57;;;;;;;;;;;;;;;11.55;75.93;98897.50;5070090;28;19925;-61
2021/12/29 12:51:24;;;;;;;;;;;;;;;11.55;75.75;98889.59;5069791;28;19932;-60
2021/12/29 12:53:51;;;;;;;;;;;;;;;11.55;75.80;98883.50;5070093;28;19924;-60
2021/12/29 12:56:22;;;;;;;;;;;;;;;11.54;75.92;98885.28;5070067;28;19933;-62
2021/12/29 12:58:50;;;;;;;;;;;;;;;11.52;75.71;98881.94;5068680;28;19924;-59
2021/12/29 13:01:19;;;;;;;;;;;;;;;11.50;75.46;98881.22;5068331;28;19928;-59